sensor_id;sensor_type;location;lat;lon;timestamp;temperature;humidity
23507;DHT22;11930;53.076;18.250;2022-08-03T00:00:08;13.90;99.90
23507;DHT22;11930;53.076;18.250;2022-08-03T00:03:00;13.90;99.90
23507;DHT22;11930;53.076;18.250;2022-08-03T00:05:27;13.90;99.90
23507;DHT22;11930;53.076;18.250;2022-08-03T00:07:52;13.90;99.90
23507;DHT22;11930;53.076;18.250;2022-08-03T00:10:18;14.00;99.90
23507;DHT22;11930;53.076;18.250;2022-08-03T00:12:44;14.00;99.90
23507;DHT22;11930;53.076;18.250;2022-08-03T00:15:10;14.00;99.90
23507;DHT22;11930;53.076;18.250;2022-08-03T00:17:36;14.00;99.90
23507;DHT22;11930;53.076;18.250;2022-08-03T00:20:02;14.00;99.90
23507;DHT22;11930;53.076;18.250;2022-08-03T00:22:28;14.00;99.90
23507;DHT22;11930;53.076;18.250;2022-08-03T00:24:54;14.00;99.90
23507;DHT22;11930;53.076;18.250;2022-08-03T00:27:20;14.00;99.90
23507;DHT22;11930;53.076;18.250;2022-08-03T00:29:46;14.00;99.90
23507;DHT22;11930;53.076;18.250;2022-08-03T00:32:12;14.00;99.90
23507;DHT22;11930;53.076;18.250;2022-08-03T00:34:38;14.00;99.90
23507;DHT22;11930;53.076;18.250;2022-08-03T00:37:04;14.10;99.90
23507;DHT22;11930;53.076;18.250;2022-08-03T00:39:30;14.00;99.90
23507;DHT22;11930;53.076;18.250;2022-08-03T00:41:56;14.00;99.90
23507;DHT22;11930;53.076;18.250;2022-08-03T00:44:22;14.00;99.90
23507;DHT22;11930;53.076;18.250;2022-08-03T00:46:48;14.00;99.90
23507;DHT22;11930;53.076;18.250;2022-08-03T00:49:14;14.10;99.90
23507;DHT22;11930;53.076;18.250;2022-08-03T00:51:40;14.10;99.90
23507;DHT22;11930;53.076;18.250;2022-08-03T00:54:06;14.10;99.90
23507;DHT22;11930;53.076;18.250;2022-08-03T00:56:32;14.10;99.90
23507;DHT22;11930;53.076;18.250;2022-08-03T00:58:58;14.10;99.90
23507;DHT22;11930;53.076;18.250;2022-08-03T01:01:24;14.20;99.90
23507;DHT22;11930;53.076;18.250;2022-08-03T01:03:50;14.20;99.90
23507;DHT22;11930;53.076;18.250;2022-08-03T01:06:35;14.20;99.90
23507;DHT22;11930;53.076;18.250;2022-08-03T01:09:18;14.20;99.90
23507;DHT22;11930;53.076;18.250;2022-08-03T01:11:53;14.20;99.90
23507;DHT22;11930;53.076;18.250;2022-08-03T01:14:44;14.20;99.90
23507;DHT22;11930;53.076;18.250;2022-08-03T01:17:23;14.20;99.90
23507;DHT22;11930;53.076;18.250;2022-08-03T01:20:03;14.20;99.90
23507;DHT22;11930;53.076;18.250;2022-08-03T01:25:33;14.20;99.90
23507;DHT22;11930;53.076;18.250;2022-08-03T01:31:04;14.30;99.90
23507;DHT22;11930;53.076;18.250;2022-08-03T01:33:39;14.30;99.90
23507;DHT22;11930;53.076;18.250;2022-08-03T01:36:11;14.30;99.90
23507;DHT22;11930;53.076;18.250;2022-08-03T01:38:43;14.30;99.90
23507;DHT22;11930;53.076;18.250;2022-08-03T01:41:33;14.30;99.90
23507;DHT22;11930;53.076;18.250;2022-08-03T01:44:06;14.30;99.90
23507;DHT22;11930;53.076;18.250;2022-08-03T01:46:34;14.30;99.90
23507;DHT22;11930;53.076;18.250;2022-08-03T01:49:02;14.30;99.90
23507;DHT22;11930;53.076;18.250;2022-08-03T01:51:28;14.30;99.90
23507;DHT22;11930;53.076;18.250;2022-08-03T01:53:56;14.30;99.90
23507;DHT22;11930;53.076;18.250;2022-08-03T01:56:24;14.40;99.90
23507;DHT22;11930;53.076;18.250;2022-08-03T01:58:52;14.40;99.90
23507;DHT22;11930;53.076;18.250;2022-08-03T02:01:20;14.40;99.90
23507;DHT22;11930;53.076;18.250;2022-08-03T02:03:48;14.40;99.90
23507;DHT22;11930;53.076;18.250;2022-08-03T02:06:16;14.50;99.90
23507;DHT22;11930;53.076;18.250;2022-08-03T02:08:44;14.50;99.90
23507;DHT22;11930;53.076;18.250;2022-08-03T02:11:11;14.50;99.90
23507;DHT22;11930;53.076;18.250;2022-08-03T02:13:38;14.50;99.90
23507;DHT22;11930;53.076;18.250;2022-08-03T02:16:06;14.50;99.90
23507;DHT22;11930;53.076;18.250;2022-08-03T02:18:33;14.50;99.90
23507;DHT22;11930;53.076;18.250;2022-08-03T02:21:00;14.60;99.90
23507;DHT22;11930;53.076;18.250;2022-08-03T02:23:29;14.60;99.90
23507;DHT22;11930;53.076;18.250;2022-08-03T02:25:58;14.60;99.90
23507;DHT22;11930;53.076;18.250;2022-08-03T02:28:34;14.60;99.90
23507;DHT22;11930;53.076;18.250;2022-08-03T02:31:04;14.60;99.90
23507;DHT22;11930;53.076;18.250;2022-08-03T02:33:35;14.60;99.90
23507;DHT22;11930;53.076;18.250;2022-08-03T02:36:03;14.60;99.90
23507;DHT22;11930;53.076;18.250;2022-08-03T02:38:38;14.60;99.90
23507;DHT22;11930;53.076;18.250;2022-08-03T02:41:08;14.60;99.90
23507;DHT22;11930;53.076;18.250;2022-08-03T02:43:39;14.60;99.90
23507;DHT22;11930;53.076;18.250;2022-08-03T02:46:08;14.60;99.90
23507;DHT22;11930;53.076;18.250;2022-08-03T02:48:40;14.60;99.90
23507;DHT22;11930;53.076;18.250;2022-08-03T02:51:08;14.60;99.90
23507;DHT22;11930;53.076;18.250;2022-08-03T02:53:35;14.60;99.90
23507;DHT22;11930;53.076;18.250;2022-08-03T02:56:02;14.70;99.90
23507;DHT22;11930;53.076;18.250;2022-08-03T02:58:30;14.70;99.90
23507;DHT22;11930;53.076;18.250;2022-08-03T03:00:57;14.70;99.90
23507;DHT22;11930;53.076;18.250;2022-08-03T03:03:23;14.70;99.90
23507;DHT22;11930;53.076;18.250;2022-08-03T03:05:50;14.70;99.90
23507;DHT22;11930;53.076;18.250;2022-08-03T03:08:18;14.70;99.90
23507;DHT22;11930;53.076;18.250;2022-08-03T03:10:45;14.70;99.90
23507;DHT22;11930;53.076;18.250;2022-08-03T03:13:14;14.70;99.90
23507;DHT22;11930;53.076;18.250;2022-08-03T03:15:41;14.80;99.90
23507;DHT22;11930;53.076;18.250;2022-08-03T03:18:08;14.80;99.90
23507;DHT22;11930;53.076;18.250;2022-08-03T03:20:36;14.80;99.90
23507;DHT22;11930;53.076;18.250;2022-08-03T03:23:04;14.80;99.90
23507;DHT22;11930;53.076;18.250;2022-08-03T03:25:31;14.90;99.90
23507;DHT22;11930;53.076;18.250;2022-08-03T03:28:01;14.90;99.90
23507;DHT22;11930;53.076;18.250;2022-08-03T03:30:27;15.00;99.90
23507;DHT22;11930;53.076;18.250;2022-08-03T03:32:54;15.00;99.90
23507;DHT22;11930;53.076;18.250;2022-08-03T03:35:21;15.00;99.90
23507;DHT22;11930;53.076;18.250;2022-08-03T03:37:47;15.00;99.90
23507;DHT22;11930;53.076;18.250;2022-08-03T03:40:13;15.00;99.90
23507;DHT22;11930;53.076;18.250;2022-08-03T03:42:40;15.10;99.90
23507;DHT22;11930;53.076;18.250;2022-08-03T03:45:07;15.10;99.90
23507;DHT22;11930;53.076;18.250;2022-08-03T03:47:34;15.10;99.90
23507;DHT22;11930;53.076;18.250;2022-08-03T03:50:04;15.20;99.90
23507;DHT22;11930;53.076;18.250;2022-08-03T03:52:31;15.20;99.90
23507;DHT22;11930;53.076;18.250;2022-08-03T03:54:57;15.30;99.90
23507;DHT22;11930;53.076;18.250;2022-08-03T03:57:23;15.30;99.90
23507;DHT22;11930;53.076;18.250;2022-08-03T03:59:49;15.40;99.90
23507;DHT22;11930;53.076;18.250;2022-08-03T04:02:15;15.50;99.90
23507;DHT22;11930;53.076;18.250;2022-08-03T04:04:41;15.60;99.90
23507;DHT22;11930;53.076;18.250;2022-08-03T04:07:26;16.00;99.90
23507;DHT22;11930;53.076;18.250;2022-08-03T04:10:21;16.40;99.90
23507;DHT22;11930;53.076;18.250;2022-08-03T04:13:15;16.60;99.90
23507;DHT22;11930;53.076;18.250;2022-08-03T04:15:44;16.60;99.90
23507;DHT22;11930;53.076;18.250;2022-08-03T04:18:12;16.60;99.90
23507;DHT22;11930;53.076;18.250;2022-08-03T04:20:44;16.60;99.90
23507;DHT22;11930;53.076;18.250;2022-08-03T04:23:12;16.70;99.90
23507;DHT22;11930;53.076;18.250;2022-08-03T04:25:39;16.80;99.90
23507;DHT22;11930;53.076;18.250;2022-08-03T04:28:07;16.90;99.90
23507;DHT22;11930;53.076;18.250;2022-08-03T04:30:36;17.20;99.90
23507;DHT22;11930;53.076;18.250;2022-08-03T04:33:04;17.40;99.90
23507;DHT22;11930;53.076;18.250;2022-08-03T04:35:33;17.90;99.90
23507;DHT22;11930;53.076;18.250;2022-08-03T04:38:04;18.50;99.90
23507;DHT22;11930;53.076;18.250;2022-08-03T04:40:35;18.70;99.90
23507;DHT22;11930;53.076;18.250;2022-08-03T04:43:02;18.80;99.90
23507;DHT22;11930;53.076;18.250;2022-08-03T04:45:29;18.90;99.90
23507;DHT22;11930;53.076;18.250;2022-08-03T04:47:56;18.90;99.90
23507;DHT22;11930;53.076;18.250;2022-08-03T04:50:23;19.00;99.90
23507;DHT22;11930;53.076;18.250;2022-08-03T04:53:05;19.10;99.90
23507;DHT22;11930;53.076;18.250;2022-08-03T04:55:33;19.20;99.90
23507;DHT22;11930;53.076;18.250;2022-08-03T04:57:59;19.20;99.90
23507;DHT22;11930;53.076;18.250;2022-08-03T05:00:26;19.10;99.90
23507;DHT22;11930;53.076;18.250;2022-08-03T05:02:53;19.10;99.90
23507;DHT22;11930;53.076;18.250;2022-08-03T05:05:19;19.20;99.90
23507;DHT22;11930;53.076;18.250;2022-08-03T05:07:45;19.30;99.90
23507;DHT22;11930;53.076;18.250;2022-08-03T05:10:12;19.30;99.90
23507;DHT22;11930;53.076;18.250;2022-08-03T05:12:38;19.50;99.90
23507;DHT22;11930;53.076;18.250;2022-08-03T05:15:05;19.50;99.90
23507;DHT22;11930;53.076;18.250;2022-08-03T05:17:31;19.60;99.90
23507;DHT22;11930;53.076;18.250;2022-08-03T05:20:02;19.50;99.90
23507;DHT22;11930;53.076;18.250;2022-08-03T05:22:29;19.60;99.90
23507;DHT22;11930;53.076;18.250;2022-08-03T05:24:55;19.70;99.90
23507;DHT22;11930;53.076;18.250;2022-08-03T05:27:21;19.80;99.90
23507;DHT22;11930;53.076;18.250;2022-08-03T05:29:49;19.80;99.90
23507;DHT22;11930;53.076;18.250;2022-08-03T05:32:16;19.90;99.90
23507;DHT22;11930;53.076;18.250;2022-08-03T05:34:42;20.20;99.90
23507;DHT22;11930;53.076;18.250;2022-08-03T05:37:09;20.60;99.90
23507;DHT22;11930;53.076;18.250;2022-08-03T05:39:35;20.90;99.90
23507;DHT22;11930;53.076;18.250;2022-08-03T05:42:01;21.20;99.90
23507;DHT22;11930;53.076;18.250;2022-08-03T05:44:28;21.40;99.90
23507;DHT22;11930;53.076;18.250;2022-08-03T05:46:54;21.70;99.90
23507;DHT22;11930;53.076;18.250;2022-08-03T05:49:20;21.80;99.90
23507;DHT22;11930;53.076;18.250;2022-08-03T05:51:46;22.00;99.90
23507;DHT22;11930;53.076;18.250;2022-08-03T05:54:12;21.90;99.90
23507;DHT22;11930;53.076;18.250;2022-08-03T05:56:38;22.10;99.90
23507;DHT22;11930;53.076;18.250;2022-08-03T05:59:07;22.00;99.90
23507;DHT22;11930;53.076;18.250;2022-08-03T06:01:33;22.10;99.90
23507;DHT22;11930;53.076;18.250;2022-08-03T06:03:59;22.10;99.90
23507;DHT22;11930;53.076;18.250;2022-08-03T06:06:25;22.30;99.90
23507;DHT22;11930;53.076;18.250;2022-08-03T06:08:51;22.50;99.90
23507;DHT22;11930;53.076;18.250;2022-08-03T06:11:17;22.90;99.90
23507;DHT22;11930;53.076;18.250;2022-08-03T06:13:43;22.90;99.90
23507;DHT22;11930;53.076;18.250;2022-08-03T06:16:09;23.20;99.90
23507;DHT22;11930;53.076;18.250;2022-08-03T06:18:36;23.50;99.90
23507;DHT22;11930;53.076;18.250;2022-08-03T06:21:03;24.00;99.90
23507;DHT22;11930;53.076;18.250;2022-08-03T06:23:29;24.00;99.90
23507;DHT22;11930;53.076;18.250;2022-08-03T06:25:54;24.50;99.90
23507;DHT22;11930;53.076;18.250;2022-08-03T06:28:21;25.10;99.90
23507;DHT22;11930;53.076;18.250;2022-08-03T06:30:47;25.40;99.10
23507;DHT22;11930;53.076;18.250;2022-08-03T06:33:12;25.40;98.90
23507;DHT22;11930;53.076;18.250;2022-08-03T06:35:39;25.80;95.80
23507;DHT22;11930;53.076;18.250;2022-08-03T06:38:04;26.60;93.70
23507;DHT22;11930;53.076;18.250;2022-08-03T06:40:30;27.10;90.60
23507;DHT22;11930;53.076;18.250;2022-08-03T06:43:01;27.30;87.00
23507;DHT22;11930;53.076;18.250;2022-08-03T06:45:28;27.60;86.30
23507;DHT22;11930;53.076;18.250;2022-08-03T06:48:05;27.90;83.90
23507;DHT22;11930;53.076;18.250;2022-08-03T06:50:32;27.80;80.10
23507;DHT22;11930;53.076;18.250;2022-08-03T06:52:58;28.00;81.00
23507;DHT22;11930;53.076;18.250;2022-08-03T06:55:25;28.90;76.50
23507;DHT22;11930;53.076;18.250;2022-08-03T06:57:51;29.80;73.60
23507;DHT22;11930;53.076;18.250;2022-08-03T07:00:17;30.10;70.10
23507;DHT22;11930;53.076;18.250;2022-08-03T07:02:43;30.80;65.50
23507;DHT22;11930;53.076;18.250;2022-08-03T07:05:10;31.30;64.70
23507;DHT22;11930;53.076;18.250;2022-08-03T07:07:36;32.00;62.80
23507;DHT22;11930;53.076;18.250;2022-08-03T07:10:04;33.80;57.50
23507;DHT22;11930;53.076;18.250;2022-08-03T07:12:30;35.20;53.60
23507;DHT22;11930;53.076;18.250;2022-08-03T07:14:57;36.40;51.80
23507;DHT22;11930;53.076;18.250;2022-08-03T07:17:23;38.00;45.80
23507;DHT22;11930;53.076;18.250;2022-08-03T07:19:50;37.60;45.30
23507;DHT22;11930;53.076;18.250;2022-08-03T07:22:16;36.40;46.60
23507;DHT22;11930;53.076;18.250;2022-08-03T07:24:42;35.70;47.80
23507;DHT22;11930;53.076;18.250;2022-08-03T07:27:09;35.00;47.90
23507;DHT22;11930;53.076;18.250;2022-08-03T07:29:35;34.80;48.20
23507;DHT22;11930;53.076;18.250;2022-08-03T07:32:03;34.90;49.50
23507;DHT22;11930;53.076;18.250;2022-08-03T07:34:30;35.90;47.30
23507;DHT22;11930;53.076;18.250;2022-08-03T07:36:56;37.30;45.40
23507;DHT22;11930;53.076;18.250;2022-08-03T07:39:22;37.80;43.90
23507;DHT22;11930;53.076;18.250;2022-08-03T07:41:48;38.50;43.80
23507;DHT22;11930;53.076;18.250;2022-08-03T07:44:19;38.40;42.30
23507;DHT22;11930;53.076;18.250;2022-08-03T07:46:45;38.00;42.60
23507;DHT22;11930;53.076;18.250;2022-08-03T07:49:17;36.50;44.90
23507;DHT22;11930;53.076;18.250;2022-08-03T07:51:43;36.20;45.10
23507;DHT22;11930;53.076;18.250;2022-08-03T07:54:09;35.30;45.60
23507;DHT22;11930;53.076;18.250;2022-08-03T07:56:36;34.10;48.00
23507;DHT22;11930;53.076;18.250;2022-08-03T07:59:02;33.20;50.00
23507;DHT22;11930;53.076;18.250;2022-08-03T08:01:28;32.30;52.70
23507;DHT22;11930;53.076;18.250;2022-08-03T08:03:54;31.60;52.80
23507;DHT22;11930;53.076;18.250;2022-08-03T08:06:21;31.30;53.10
23507;DHT22;11930;53.076;18.250;2022-08-03T08:08:47;31.10;53.00
23507;DHT22;11930;53.076;18.250;2022-08-03T08:11:14;30.70;53.80
23507;DHT22;11930;53.076;18.250;2022-08-03T08:13:40;30.50;54.70
23507;DHT22;11930;53.076;18.250;2022-08-03T08:16:06;30.70;55.20
23507;DHT22;11930;53.076;18.250;2022-08-03T08:18:32;30.80;55.50
23507;DHT22;11930;53.076;18.250;2022-08-03T08:20:59;31.80;54.10
23507;DHT22;11930;53.076;18.250;2022-08-03T08:23:26;32.40;52.80
23507;DHT22;11930;53.076;18.250;2022-08-03T08:25:52;32.70;52.00
23507;DHT22;11930;53.076;18.250;2022-08-03T08:28:20;33.60;51.10
23507;DHT22;11930;53.076;18.250;2022-08-03T08:30:46;34.40;50.50
23507;DHT22;11930;53.076;18.250;2022-08-03T08:33:12;35.60;47.10
23507;DHT22;11930;53.076;18.250;2022-08-03T08:35:39;35.70;46.30
23507;DHT22;11930;53.076;18.250;2022-08-03T08:38:05;35.60;44.50
23507;DHT22;11930;53.076;18.250;2022-08-03T08:40:31;35.20;46.20
23507;DHT22;11930;53.076;18.250;2022-08-03T08:42:57;35.80;45.10
23507;DHT22;11930;53.076;18.250;2022-08-03T08:45:23;36.00;42.90
23507;DHT22;11930;53.076;18.250;2022-08-03T08:47:50;36.20;42.50
23507;DHT22;11930;53.076;18.250;2022-08-03T08:50:19;36.10;42.50
23507;DHT22;11930;53.076;18.250;2022-08-03T08:52:47;35.50;45.40
23507;DHT22;11930;53.076;18.250;2022-08-03T08:55:17;35.60;45.20
23507;DHT22;11930;53.076;18.250;2022-08-03T08:57:51;35.90;43.40
23507;DHT22;11930;53.076;18.250;2022-08-03T09:00:18;35.70;43.60
23507;DHT22;11930;53.076;18.250;2022-08-03T09:02:44;35.80;42.60
23507;DHT22;11930;53.076;18.250;2022-08-03T09:05:12;35.80;41.70
23507;DHT22;11930;53.076;18.250;2022-08-03T09:07:39;35.10;43.70
23507;DHT22;11930;53.076;18.250;2022-08-03T09:10:11;34.30;43.40
23507;DHT22;11930;53.076;18.250;2022-08-03T09:12:46;33.60;44.10
23507;DHT22;11930;53.076;18.250;2022-08-03T09:15:42;32.90;43.60
23507;DHT22;11930;53.076;18.250;2022-08-03T09:18:27;32.50;45.10
23507;DHT22;11930;53.076;18.250;2022-08-03T09:21:23;31.80;47.10
23507;DHT22;11930;53.076;18.250;2022-08-03T09:23:59;31.60;47.90
23507;DHT22;11930;53.076;18.250;2022-08-03T09:26:27;31.70;47.80
23507;DHT22;11930;53.076;18.250;2022-08-03T09:29:02;31.70;48.80
23507;DHT22;11930;53.076;18.250;2022-08-03T09:31:33;31.50;48.80
23507;DHT22;11930;53.076;18.250;2022-08-03T09:34:01;31.50;49.60
23507;DHT22;11930;53.076;18.250;2022-08-03T09:36:54;31.50;47.00
23507;DHT22;11930;53.076;18.250;2022-08-03T09:39:23;31.60;46.50
23507;DHT22;11930;53.076;18.250;2022-08-03T09:42:08;31.40;47.50
23507;DHT22;11930;53.076;18.250;2022-08-03T09:44:39;31.10;49.00
23507;DHT22;11930;53.076;18.250;2022-08-03T09:47:08;31.10;46.40
23507;DHT22;11930;53.076;18.250;2022-08-03T09:49:38;31.10;47.90
23507;DHT22;11930;53.076;18.250;2022-08-03T09:52:35;31.20;47.20
23507;DHT22;11930;53.076;18.250;2022-08-03T09:55:07;31.70;48.20
23507;DHT22;11930;53.076;18.250;2022-08-03T09:57:34;32.00;45.90
23507;DHT22;11930;53.076;18.250;2022-08-03T10:00:11;31.80;48.80
23507;DHT22;11930;53.076;18.250;2022-08-03T10:02:43;31.50;47.40
23507;DHT22;11930;53.076;18.250;2022-08-03T10:05:11;31.50;48.10
23507;DHT22;11930;53.076;18.250;2022-08-03T10:07:48;31.50;46.80
23507;DHT22;11930;53.076;18.250;2022-08-03T10:10:16;31.50;46.80
23507;DHT22;11930;53.076;18.250;2022-08-03T10:12:43;31.50;46.40
23507;DHT22;11930;53.076;18.250;2022-08-03T10:15:10;31.50;47.20
23507;DHT22;11930;53.076;18.250;2022-08-03T10:17:37;31.80;47.00
23507;DHT22;11930;53.076;18.250;2022-08-03T10:20:04;31.90;46.00
23507;DHT22;11930;53.076;18.250;2022-08-03T10:22:33;31.80;45.40
23507;DHT22;11930;53.076;18.250;2022-08-03T10:25:10;31.70;46.00
23507;DHT22;11930;53.076;18.250;2022-08-03T10:27:40;31.30;46.40
23507;DHT22;11930;53.076;18.250;2022-08-03T10:30:09;31.40;45.70
23507;DHT22;11930;53.076;18.250;2022-08-03T10:35:15;31.50;46.30
23507;DHT22;11930;53.076;18.250;2022-08-03T10:37:51;31.50;45.80
23507;DHT22;11930;53.076;18.250;2022-08-03T10:40:17;31.50;47.30
23507;DHT22;11930;53.076;18.250;2022-08-03T10:42:48;31.50;45.30
23507;DHT22;11930;53.076;18.250;2022-08-03T10:45:24;31.50;46.20
23507;DHT22;11930;53.076;18.250;2022-08-03T10:47:52;31.20;45.10
23507;DHT22;11930;53.076;18.250;2022-08-03T10:50:23;31.20;46.20
23507;DHT22;11930;53.076;18.250;2022-08-03T10:53:03;31.40;44.40
23507;DHT22;11930;53.076;18.250;2022-08-03T10:55:52;31.20;43.00
23507;DHT22;11930;53.076;18.250;2022-08-03T11:01:07;31.30;45.00
23507;DHT22;11930;53.076;18.250;2022-08-03T11:03:33;31.20;43.10
23507;DHT22;11930;53.076;18.250;2022-08-03T11:06:23;30.90;44.10
23507;DHT22;11930;53.076;18.250;2022-08-03T11:11:35;31.40;45.80
23507;DHT22;11930;53.076;18.250;2022-08-03T11:14:08;31.50;44.80
23507;DHT22;11930;53.076;18.250;2022-08-03T11:16:40;31.50;47.40
23507;DHT22;11930;53.076;18.250;2022-08-03T11:19:08;31.70;43.40
23507;DHT22;11930;53.076;18.250;2022-08-03T11:29:55;31.50;44.20
23507;DHT22;11930;53.076;18.250;2022-08-03T11:35:29;31.10;47.70
23507;DHT22;11930;53.076;18.250;2022-08-03T11:48:34;31.10;43.80
23507;DHT22;11930;53.076;18.250;2022-08-03T11:51:01;30.70;44.00
23507;DHT22;11930;53.076;18.250;2022-08-03T11:53:28;30.50;45.20
23507;DHT22;11930;53.076;18.250;2022-08-03T11:55:57;30.20;44.70
23507;DHT22;11930;53.076;18.250;2022-08-03T11:58:25;30.10;45.50
23507;DHT22;11930;53.076;18.250;2022-08-03T12:00:52;30.10;48.00
23507;DHT22;11930;53.076;18.250;2022-08-03T12:03:19;30.30;46.20
23507;DHT22;11930;53.076;18.250;2022-08-03T12:05:47;30.40;46.70
23507;DHT22;11930;53.076;18.250;2022-08-03T12:08:16;30.80;45.30
23507;DHT22;11930;53.076;18.250;2022-08-03T12:10:49;31.00;45.40
23507;DHT22;11930;53.076;18.250;2022-08-03T12:13:16;31.20;46.20
23507;DHT22;11930;53.076;18.250;2022-08-03T12:15:49;31.10;45.40
23507;DHT22;11930;53.076;18.250;2022-08-03T12:18:17;31.20;44.50
23507;DHT22;11930;53.076;18.250;2022-08-03T12:20:44;31.10;44.00
23507;DHT22;11930;53.076;18.250;2022-08-03T12:23:11;30.80;44.50
23507;DHT22;11930;53.076;18.250;2022-08-03T12:25:38;30.70;46.70
23507;DHT22;11930;53.076;18.250;2022-08-03T12:28:07;30.70;44.70
23507;DHT22;11930;53.076;18.250;2022-08-03T12:30:34;30.50;47.20
23507;DHT22;11930;53.076;18.250;2022-08-03T12:33:14;30.60;47.00
23507;DHT22;11930;53.076;18.250;2022-08-03T12:35:40;30.70;47.00
23507;DHT22;11930;53.076;18.250;2022-08-03T12:38:07;30.60;47.30
23507;DHT22;11930;53.076;18.250;2022-08-03T12:40:33;30.60;47.10
23507;DHT22;11930;53.076;18.250;2022-08-03T12:42:59;30.60;45.80
23507;DHT22;11930;53.076;18.250;2022-08-03T12:45:27;30.60;45.00
23507;DHT22;11930;53.076;18.250;2022-08-03T12:50:32;30.60;47.10
23507;DHT22;11930;53.076;18.250;2022-08-03T12:52:59;30.50;45.80
23507;DHT22;11930;53.076;18.250;2022-08-03T12:55:26;30.40;47.80
23507;DHT22;11930;53.076;18.250;2022-08-03T12:58:31;30.20;46.80
23507;DHT22;11930;53.076;18.250;2022-08-03T13:00:58;30.10;45.80
23507;DHT22;11930;53.076;18.250;2022-08-03T13:03:24;30.00;47.50
23507;DHT22;11930;53.076;18.250;2022-08-03T13:05:50;29.90;46.30
23507;DHT22;11930;53.076;18.250;2022-08-03T13:08:21;29.90;47.70
23507;DHT22;11930;53.076;18.250;2022-08-03T13:10:47;29.90;47.40
23507;DHT22;11930;53.076;18.250;2022-08-03T13:13:13;29.90;46.70
23507;DHT22;11930;53.076;18.250;2022-08-03T13:15:40;29.70;47.40
23507;DHT22;11930;53.076;18.250;2022-08-03T13:18:06;29.80;48.90
23507;DHT22;11930;53.076;18.250;2022-08-03T13:20:33;29.90;49.00
23507;DHT22;11930;53.076;18.250;2022-08-03T13:22:59;29.90;47.00
23507;DHT22;11930;53.076;18.250;2022-08-03T13:25:25;29.90;48.50
23507;DHT22;11930;53.076;18.250;2022-08-03T13:27:51;30.00;48.90
23507;DHT22;11930;53.076;18.250;2022-08-03T13:30:17;29.80;49.60
23507;DHT22;11930;53.076;18.250;2022-08-03T13:32:43;29.70;48.90
23507;DHT22;11930;53.076;18.250;2022-08-03T13:35:10;29.60;48.70
23507;DHT22;11930;53.076;18.250;2022-08-03T13:37:37;29.60;49.10
23507;DHT22;11930;53.076;18.250;2022-08-03T13:40:07;29.70;48.10
23507;DHT22;11930;53.076;18.250;2022-08-03T13:42:34;29.70;48.50
23507;DHT22;11930;53.076;18.250;2022-08-03T13:45:03;29.80;50.90
23507;DHT22;11930;53.076;18.250;2022-08-03T13:47:30;29.80;48.20
23507;DHT22;11930;53.076;18.250;2022-08-03T13:49:56;29.70;47.40
23507;DHT22;11930;53.076;18.250;2022-08-03T13:52:22;29.80;49.50
23507;DHT22;11930;53.076;18.250;2022-08-03T13:54:48;29.90;47.80
23507;DHT22;11930;53.076;18.250;2022-08-03T13:57:14;29.80;47.30
23507;DHT22;11930;53.076;18.250;2022-08-03T13:59:40;29.80;48.30
23507;DHT22;11930;53.076;18.250;2022-08-03T14:02:06;29.80;49.80
23507;DHT22;11930;53.076;18.250;2022-08-03T14:04:32;29.90;48.20
23507;DHT22;11930;53.076;18.250;2022-08-03T14:06:58;29.80;48.40
23507;DHT22;11930;53.076;18.250;2022-08-03T14:09:24;29.80;47.90
23507;DHT22;11930;53.076;18.250;2022-08-03T14:11:50;29.80;48.40
23507;DHT22;11930;53.076;18.250;2022-08-03T14:14:16;29.70;48.10
23507;DHT22;11930;53.076;18.250;2022-08-03T14:16:42;29.60;49.30
23507;DHT22;11930;53.076;18.250;2022-08-03T14:19:08;29.60;49.70
23507;DHT22;11930;53.076;18.250;2022-08-03T14:21:34;29.60;50.00
23507;DHT22;11930;53.076;18.250;2022-08-03T14:24:00;29.50;49.00
23507;DHT22;11930;53.076;18.250;2022-08-03T14:26:26;29.40;48.70
23507;DHT22;11930;53.076;18.250;2022-08-03T14:28:55;29.40;49.90
23507;DHT22;11930;53.076;18.250;2022-08-03T14:31:21;29.40;50.80
23507;DHT22;11930;53.076;18.250;2022-08-03T14:33:48;29.40;50.20
23507;DHT22;11930;53.076;18.250;2022-08-03T14:36:14;29.50;49.90
23507;DHT22;11930;53.076;18.250;2022-08-03T14:38:40;29.50;50.70
23507;DHT22;11930;53.076;18.250;2022-08-03T14:41:06;29.60;49.40
23507;DHT22;11930;53.076;18.250;2022-08-03T14:43:32;29.60;50.00
23507;DHT22;11930;53.076;18.250;2022-08-03T14:45:58;29.60;48.60
23507;DHT22;11930;53.076;18.250;2022-08-03T14:48:24;29.60;48.80
23507;DHT22;11930;53.076;18.250;2022-08-03T14:50:52;29.50;49.20
23507;DHT22;11930;53.076;18.250;2022-08-03T14:53:20;29.60;48.70
23507;DHT22;11930;53.076;18.250;2022-08-03T14:55:46;29.60;49.00
23507;DHT22;11930;53.076;18.250;2022-08-03T14:58:15;29.50;49.40
23507;DHT22;11930;53.076;18.250;2022-08-03T15:00:41;29.50;48.90
23507;DHT22;11930;53.076;18.250;2022-08-03T15:03:06;29.50;49.90
23507;DHT22;11930;53.076;18.250;2022-08-03T15:05:33;29.50;49.50
23507;DHT22;11930;53.076;18.250;2022-08-03T15:07:59;29.50;49.90
23507;DHT22;11930;53.076;18.250;2022-08-03T15:10:24;29.40;48.90
23507;DHT22;11930;53.076;18.250;2022-08-03T15:12:51;29.40;49.30
23507;DHT22;11930;53.076;18.250;2022-08-03T15:15:19;29.40;50.00
23507;DHT22;11930;53.076;18.250;2022-08-03T15:17:45;29.40;49.60
23507;DHT22;11930;53.076;18.250;2022-08-03T15:20:11;29.30;49.20
23507;DHT22;11930;53.076;18.250;2022-08-03T15:22:40;29.30;50.10
23507;DHT22;11930;53.076;18.250;2022-08-03T15:25:06;29.40;49.30
23507;DHT22;11930;53.076;18.250;2022-08-03T15:27:32;29.40;49.50
23507;DHT22;11930;53.076;18.250;2022-08-03T15:29:58;29.40;49.90
23507;DHT22;11930;53.076;18.250;2022-08-03T15:32:27;29.40;49.70
23507;DHT22;11930;53.076;18.250;2022-08-03T15:34:53;29.40;49.90
23507;DHT22;11930;53.076;18.250;2022-08-03T15:37:19;29.40;49.70
23507;DHT22;11930;53.076;18.250;2022-08-03T15:39:45;29.30;49.70
23507;DHT22;11930;53.076;18.250;2022-08-03T15:42:12;29.20;51.20
23507;DHT22;11930;53.076;18.250;2022-08-03T15:44:37;29.10;50.60
23507;DHT22;11930;53.076;18.250;2022-08-03T15:47:03;29.10;50.60
23507;DHT22;11930;53.076;18.250;2022-08-03T15:49:29;29.20;50.70
23507;DHT22;11930;53.076;18.250;2022-08-03T15:51:55;29.20;51.00
23507;DHT22;11930;53.076;18.250;2022-08-03T15:54:21;29.20;50.00
23507;DHT22;11930;53.076;18.250;2022-08-03T15:56:47;29.20;50.80
23507;DHT22;11930;53.076;18.250;2022-08-03T15:59:13;29.20;50.20
23507;DHT22;11930;53.076;18.250;2022-08-03T16:01:40;29.20;50.00